Portada
METAR-TAF:

METAR-TAF

Aeropuertos :

Philip Billard Municipal Airport

Topeka, Kansas, Estados Unidos

latitud: 39-04-21N, longitud: 095-37-33W, altitud: 268 m

Observación

El informe se hizo hace 58 minutos, a las 06:53 UTC
Viento 5 kt del sureste
Temperatura 25°C
Humedad 79%
Presión 1014 hPa
Visibilidad: 16.1 km
Cielo despejado

METAR: KTOP 060653Z AUTO 13005KT 10SM CLR 25/21 A2994 RMK AO2 SLP127 T02500211

Hora: 02:51 (07:51 UTC)

Pronóstico

El informe se hizo hace 2 horas y 31 minutos, a las 05:20 UTC
Pronóstico válido del 06 a las 06 UTC al 07 a las 06 UTC
Viento 7 kt del sur-sureste
Visibilidad: 10 km
Escasas nubes a una altura de 25000 ft

TAF: KTOP 060520Z 0606/0706 15007KT P6SM FEW250

Observaciones y pronósticos meteorológicos de más de 4000 aeropuertos (mensajes METAR y TAF).

Los puntos amarillos y rojos representan las estaciones disponibles.

Ponga el ratón en el punto deseado para ver el nombre de la estación.

Haga clic para ver las observaciones y los pronósticos meteorológicos.

Para cambiar el mapa : haga clic en los botones verdes con una cruz de color negro para hacer un zoom, en el botón verde con un guión para alejar o en las flechas verdes para mapas adyacentes.


METAR-TAF: